KDSV

Dansville Municipal Airport

Dansville, New York, USA
METAR KDSV 250054Z AUTO 15004KT 10SM CLR 19/07 A3009 RMK AO2 SLP196 T01940072
Observed Flight Rules
May-25 @ 00:54 UTC (15 minutes ago) Visual Flight Rules
Wind Visibility Clouds
150° at 4 knots 10 miles
  • Clear skies
Temperatures Readings
Current 19°C / 66°F
Dewpoint 7°C / 45°F
Humidity 46%
Altimeter 30.09" Hg
Pressure 1019.6 hPa
Elevation 198
METAR KDSV 250054Z AUTO 15004KT 10SM CLR 19/07 A3009 RMK AO2 SLP196 T01940072
Observed Flight Rules
May-25 @ 00:54 UTC
(15 minutes ago)
VFR
Wind Visibility
150° at 4 knots 10 miles
Clouds
  • Clear skies
Temperature Dewpoint
19°C / 66°F 7°C / 45°F
Humidity Altimeter Pressure
46% 30.09" Hg 1019.6 hPa